createdAt,value
2019-02-07T11:44:06.579Z,1000.92
2019-02-07T11:45:06.571Z,1000.89
2019-02-07T11:46:06.561Z,1000.95
2019-02-07T11:47:06.990Z,1000.98
2019-02-07T11:48:06.554Z,1001.05
2019-02-07T11:49:07.267Z,1001.01
2019-02-07T11:50:06.510Z,1001.04
2019-02-07T11:51:06.516Z,1001.06
2019-02-07T11:52:06.499Z,1001.03
2019-02-07T11:53:06.513Z,1001.07
2019-02-07T11:54:06.470Z,1001.04
2019-02-07T11:55:06.487Z,1001.07
2019-02-07T11:56:06.460Z,1001.05
2019-02-07T11:57:06.441Z,1001.08
2019-02-07T11:58:07.428Z,1000.99
2019-02-07T11:59:06.429Z,1001.02
2019-02-07T12:00:06.449Z,1001.02
2019-02-07T12:01:06.393Z,1001.08
2019-02-07T12:02:09.252Z,1001.04
2019-02-07T12:03:06.435Z,1001.00
2019-02-07T12:04:06.378Z,1001.08
2019-02-07T12:05:06.351Z,1001.00
2019-02-07T12:06:08.644Z,1001.04
2019-02-07T12:07:06.323Z,1001.02
2019-02-07T12:08:06.322Z,1000.99
2019-02-07T12:09:06.507Z,1001.01
2019-02-07T12:10:06.299Z,1001.02
2019-02-07T12:11:06.287Z,1000.98
2019-02-07T12:12:06.282Z,1001.02
2019-02-07T12:13:06.260Z,1001.02
2019-02-07T12:14:06.342Z,1000.94
2019-02-07T12:15:06.250Z,1000.99
2019-02-07T12:16:06.241Z,1000.95
2019-02-07T12:17:06.227Z,1000.98
2019-02-07T12:18:06.255Z,1000.96
2019-02-07T12:19:06.227Z,1000.94
2019-02-07T12:20:06.188Z,1000.93
2019-02-07T12:21:06.175Z,1001.00
2019-02-07T12:22:06.179Z,1000.95
2019-02-07T12:23:06.708Z,1000.93
2019-02-07T12:24:06.363Z,1000.96
2019-02-07T12:25:06.136Z,1000.97
2019-02-07T12:26:06.138Z,1000.99
2019-02-07T12:27:06.116Z,1000.93
2019-02-07T12:28:06.106Z,1001.00
2019-02-07T12:29:06.126Z,1001.03
2019-02-07T12:30:06.181Z,1000.98
2019-02-07T12:31:06.069Z,1000.99
2019-02-07T12:32:06.076Z,1000.98
2019-02-07T12:33:06.056Z,1001.03
2019-02-07T12:34:06.052Z,1001.01
2019-02-07T12:35:06.047Z,1000.98
2019-02-07T12:36:06.032Z,1000.96
2019-02-07T12:37:06.002Z,1001.00
2019-02-07T12:38:06.001Z,1000.96
2019-02-07T12:39:05.995Z,1000.91
2019-02-07T12:40:05.982Z,1000.95
2019-02-07T12:41:05.972Z,1000.96
2019-02-07T12:42:05.963Z,1000.87
2019-02-07T12:43:06.037Z,1000.93
2019-02-07T12:44:05.946Z,1000.96
2019-02-07T12:45:05.929Z,1000.96
2019-02-07T12:46:05.911Z,1001.01
2019-02-07T12:47:08.365Z,1000.96
2019-02-07T12:48:06.913Z,1000.99
2019-02-07T12:49:05.900Z,1000.99
2019-02-07T12:50:05.874Z,1001.05
2019-02-07T12:51:05.854Z,1000.94
2019-02-07T12:52:05.863Z,1000.91
2019-02-07T12:53:05.840Z,1000.91
2019-02-07T12:54:05.826Z,1000.88
2019-02-07T12:55:05.810Z,1000.84
2019-02-07T12:56:05.827Z,1000.88
2019-02-07T12:57:05.802Z,1000.86
2019-02-07T12:58:05.787Z,1000.87
2019-02-07T12:59:05.863Z,1000.79
2019-02-07T13:00:05.758Z,1000.78
2019-02-07T13:01:05.964Z,1000.79
2019-02-07T13:02:05.735Z,1000.74
2019-02-07T13:03:05.730Z,1000.72
2019-02-07T13:04:05.714Z,1000.73
2019-02-07T13:05:05.750Z,1000.72
2019-02-07T13:06:07.184Z,1000.78
2019-02-07T13:07:06.931Z,1000.72
2019-02-07T13:08:05.706Z,1000.73
2019-02-07T13:09:05.747Z,1000.73
2019-02-07T13:10:05.645Z,1000.71
2019-02-07T13:11:05.640Z,1000.63
2019-02-07T13:12:05.673Z,1000.72
2019-02-07T13:13:05.613Z,1000.62
2019-02-07T13:14:05.606Z,1000.71
2019-02-07T13:15:05.622Z,1000.68
2019-02-07T13:16:06.615Z,1000.68
2019-02-07T13:17:05.617Z,1000.68
2019-02-07T13:18:05.626Z,1000.66
2019-02-07T13:19:05.639Z,1000.71
2019-02-07T13:20:05.589Z,1000.69
2019-02-07T13:21:05.520Z,1000.65
2019-02-07T13:22:05.545Z,1000.64
2019-02-07T13:23:05.549Z,1000.62
2019-02-07T13:24:05.517Z,1000.70
2019-02-07T13:25:05.616Z,1000.71
2019-02-07T13:26:05.521Z,1000.63
2019-02-07T13:27:05.488Z,1000.68
2019-02-07T13:28:05.448Z,1000.67
2019-02-07T13:29:05.432Z,1000.66
2019-02-07T13:30:05.441Z,1000.66
2019-02-07T13:31:05.574Z,1000.77
2019-02-07T13:32:05.550Z,1000.68
2019-02-07T13:33:05.386Z,1000.71
2019-02-07T13:34:05.446Z,1000.65
2019-02-07T13:35:05.384Z,1000.68
2019-02-07T13:36:05.757Z,1000.59
2019-02-07T13:37:05.427Z,1000.67
2019-02-07T13:38:05.332Z,1000.67
2019-02-07T13:39:05.317Z,1000.69
2019-02-07T13:40:05.327Z,1000.67
2019-02-07T13:41:06.848Z,1000.67
2019-02-07T13:42:05.284Z,1000.64
2019-02-07T13:43:05.271Z,1000.64
2019-02-07T13:44:05.273Z,1000.62
2019-02-07T13:45:05.460Z,1000.63
2019-02-07T13:46:05.444Z,1000.67
2019-02-07T14:01:25.668Z,1000.77
2019-02-07T14:02:25.634Z,1000.71
2019-02-07T14:03:25.643Z,1000.73
2019-02-07T14:04:25.612Z,1000.68
2019-02-07T14:05:25.615Z,1000.71
2019-02-07T14:06:25.599Z,1000.79
2019-02-07T14:07:25.637Z,1000.80
2019-02-07T14:08:25.614Z,1000.81
2019-02-07T14:09:25.551Z,1000.80
2019-02-07T14:10:25.535Z,1000.84
2019-02-07T14:11:25.516Z,1000.80
2019-02-07T14:12:25.524Z,1000.76
2019-02-07T14:13:25.558Z,1000.88
2019-02-07T14:14:25.526Z,1000.88
2019-02-07T14:15:25.484Z,1000.91
2019-02-07T14:16:25.466Z,1000.91
2019-02-07T14:17:25.636Z,1000.89
2019-02-07T14:18:25.461Z,1000.91
2019-02-07T14:19:25.451Z,1000.90
2019-02-07T14:20:25.431Z,1000.95
2019-02-07T14:21:25.417Z,1000.98
2019-02-07T14:22:25.404Z,1000.97
2019-02-07T14:23:25.406Z,1000.92
2019-02-07T14:24:25.397Z,1000.97
2019-02-07T14:25:25.377Z,1000.96
2019-02-07T14:26:25.359Z,1000.96
2019-02-07T14:27:25.349Z,1000.98
2019-02-07T14:28:25.360Z,1000.98
2019-02-07T14:29:25.332Z,1000.97
2019-02-07T14:30:25.322Z,1001.01
2019-02-07T14:31:25.328Z,1001.04
2019-02-07T14:32:25.294Z,1001.07
2019-02-07T14:33:25.299Z,1001.04
2019-02-07T14:34:25.270Z,1001.04
2019-02-07T14:35:25.271Z,1001.09
2019-02-07T14:36:25.267Z,1001.07
2019-02-07T14:37:25.259Z,1001.08
2019-02-07T14:38:25.243Z,1001.11
2019-02-07T14:39:25.224Z,1001.10
2019-02-07T14:40:25.219Z,1001.12
2019-02-07T14:41:25.209Z,1001.11
2019-02-07T14:42:25.189Z,1001.10
2019-02-07T14:43:25.191Z,1001.14
2019-02-07T14:44:25.289Z,1001.19
2019-02-07T14:45:25.233Z,1001.17
2019-02-07T14:46:25.188Z,1001.15
2019-02-07T14:47:25.227Z,1001.19
2019-02-07T14:48:27.950Z,1001.20
2019-02-07T14:49:25.126Z,1001.22
2019-02-07T14:50:25.096Z,1001.23
2019-02-07T14:51:25.109Z,1001.25
2019-02-07T14:52:25.088Z,1001.24
2019-02-07T14:53:25.094Z,1001.26
2019-02-07T14:54:25.060Z,1001.23
2019-02-07T14:55:25.046Z,1001.29
2019-02-07T14:56:25.037Z,1001.25
2019-02-07T14:57:25.028Z,1001.32
2019-02-07T14:58:25.021Z,1001.35
2019-02-07T14:59:25.015Z,1001.38
2019-02-07T15:00:25.348Z,1001.39
2019-02-07T15:01:24.991Z,1001.39
2019-02-07T15:02:24.972Z,1001.37
2019-02-07T15:03:24.972Z,1001.37
2019-02-07T15:04:25.002Z,1001.35
2019-02-07T15:05:24.987Z,1001.33
2019-02-07T15:06:24.990Z,1001.34
2019-02-07T15:07:24.964Z,1001.33
2019-02-07T15:08:24.923Z,1001.30
2019-02-07T15:09:24.940Z,1001.33
2019-02-07T15:10:24.881Z,1001.41
2019-02-07T15:11:24.885Z,1001.45
2019-02-07T15:12:24.882Z,1001.45
2019-02-07T15:13:24.852Z,1001.42
2019-02-07T15:14:25.055Z,1001.44
2019-02-07T15:15:24.825Z,1001.53
2019-02-07T15:16:24.875Z,1001.49
2019-02-07T15:17:24.871Z,1001.49
2019-02-07T15:18:25.012Z,1001.53
2019-02-07T15:19:24.796Z,1001.50
2019-02-07T15:20:26.424Z,1001.49
2019-02-07T15:21:24.790Z,1001.50
2019-02-07T15:22:24.920Z,1001.52
2019-02-07T15:23:24.983Z,1001.51
2019-02-07T15:24:24.733Z,1001.50
2019-02-07T15:25:24.726Z,1001.57
2019-02-07T15:26:24.952Z,1001.56
2019-02-07T15:27:24.700Z,1001.53
2019-02-07T15:28:24.709Z,1001.58
2019-02-07T15:29:24.812Z,1001.55
2019-02-07T15:30:24.665Z,1001.58
2019-02-07T15:31:24.872Z,1001.54
2019-02-07T15:32:24.664Z,1001.58
2019-02-07T15:33:24.747Z,1001.54
2019-02-07T15:34:24.668Z,1001.58
2019-02-07T15:35:24.618Z,1001.62
2019-02-07T15:36:24.621Z,1001.57
2019-02-07T15:37:24.627Z,1001.57
2019-02-07T15:38:24.632Z,1001.58
2019-02-07T15:39:24.755Z,1001.59
2019-02-07T15:40:25.559Z,1001.63
2019-02-07T15:41:24.752Z,1001.64
2019-02-07T15:42:24.562Z,1001.70
2019-02-07T15:43:24.526Z,1001.69
2019-02-07T15:44:24.617Z,1001.68
2019-02-07T15:45:24.500Z,1001.68
2019-02-07T15:46:24.494Z,1001.76
2019-02-07T15:47:24.481Z,1001.72
2019-02-07T15:48:24.518Z,1001.71
2019-02-07T15:49:24.539Z,1001.73
2019-02-07T15:50:24.660Z,1001.71
2019-02-07T15:51:24.600Z,1001.65
2019-02-07T15:52:24.440Z,1001.70
2019-02-07T15:53:24.424Z,1001.65
2019-02-07T15:54:24.414Z,1001.71
2019-02-07T15:55:24.597Z,1001.73
2019-02-07T15:56:24.603Z,1001.66
2019-02-07T15:57:24.367Z,1001.69
2019-02-07T15:58:24.356Z,1001.70
2019-02-07T15:59:24.391Z,1001.71
2019-02-07T16:00:24.349Z,1001.70
2019-02-07T16:01:24.562Z,1001.71
2019-02-07T16:02:24.319Z,1001.65
2019-02-07T16:03:24.321Z,1001.71
2019-02-07T16:04:24.497Z,1001.72
2019-02-07T16:05:24.488Z,1001.74
2019-02-07T16:06:24.524Z,1001.72
2019-02-07T16:07:24.295Z,1001.65
2019-02-07T16:08:24.250Z,1001.71
2019-02-07T16:09:24.445Z,1001.69
2019-02-07T16:10:24.476Z,1001.76
2019-02-07T16:11:24.471Z,1001.68
2019-02-07T16:12:24.989Z,1001.69
2019-02-07T16:14:24.187Z,1001.82
2019-02-07T16:15:24.245Z,1001.79
2019-02-07T16:18:24.137Z,1001.81
2019-02-07T16:21:24.348Z,1001.86
2019-02-07T16:25:24.267Z,1001.76
2019-02-07T16:29:24.338Z,1001.76
2019-02-07T16:31:24.295Z,1001.75
2019-02-07T16:32:24.004Z,1001.78
2019-02-07T16:38:23.960Z,1001.68
2019-02-07T16:41:23.892Z,1001.68
2019-02-07T16:42:24.110Z,1001.71
2019-02-07T16:43:23.861Z,1001.70
2019-02-07T16:45:23.846Z,1001.76
2019-02-07T16:48:23.810Z,1001.85
